Time;durP1;ratioP1;P1;durP2;ratioP2;P2;SDS_P1;SDS_P2;PMS_P1;PMS_P2;Temp;Humidity;BMP_temperature;BMP_pressure;BME280_temperature;BME280_humidity;BME280_pressure;Samples;Min_cycle;Max_cycle;Signal;HPM_P1;HPM_P2
2024/01/10 00:00:30;;;;;;;14.43;8.60;;;;;;;-5.20;63.83;101266.16;5028146;28;20772;-61
2024/01/10 00:02:55;;;;;;;17.13;8.43;;;;;;;-5.26;64.92;101260.09;5056245;28;20216;-61
2024/01/10 00:05:20;;;;;;;12.67;8.30;;;;;;;-5.32;66.27;101262.41;5032500;28;20187;-63
2024/01/10 00:07:46;;;;;;;14.47;7.83;;;;;;;-5.26;66.18;101252.56;5037650;28;20186;-63
2024/01/10 00:10:11;;;;;;;15.37;8.70;;;;;;;-5.22;66.72;101247.69;5024367;28;20182;-63
2024/01/10 00:12:37;;;;;;;17.60;7.67;;;;;;;-5.32;66.70;101248.22;5045600;28;20269;-62
2024/01/10 00:15:05;;;;;;;15.13;8.87;;;;;;;-5.37;67.39;101243.06;5032022;28;20202;-62
2024/01/10 00:17:31;;;;;;;13.53;8.07;;;;;;;-5.33;67.57;101240.66;5063450;28;20340;-62
2024/01/10 00:19:56;;;;;;;14.47;8.47;;;;;;;-5.31;67.90;101244.06;5032033;28;20492;-62
2024/01/10 00:22:22;;;;;;;15.90;8.07;;;;;;;-5.32;67.76;101233.19;5046241;28;20748;-62
2024/01/10 00:24:47;;;;;;;11.87;8.00;;;;;;;-5.36;68.95;101243.91;5063980;28;20185;-61
2024/01/10 00:27:12;;;;;;;15.60;7.47;;;;;;;-5.34;70.13;101237.28;5032189;28;20186;-62
2024/01/10 00:29:38;;;;;;;15.87;8.40;;;;;;;-5.33;69.16;101239.00;5032169;28;20206;-63
2024/01/10 00:32:04;;;;;;;15.97;9.10;;;;;;;-5.31;69.86;101234.03;5008414;28;20273;-62
2024/01/10 00:34:29;;;;;;;14.87;8.43;;;;;;;-5.25;70.79;101234.19;5032009;28;20209;-62
2024/01/10 00:36:54;;;;;;;15.77;8.67;;;;;;;-5.30;70.77;101239.06;5031811;28;20267;-62
2024/01/10 00:39:20;;;;;;;15.10;8.40;;;;;;;-5.30;71.30;101240.75;5030047;28;20267;-61
2024/01/10 00:41:45;;;;;;;17.33;9.73;;;;;;;-5.32;72.67;101232.31;5056837;28;20570;-62
2024/01/10 00:44:10;;;;;;;15.57;8.07;;;;;;;-5.43;74.04;101230.34;5032826;28;20205;-63
2024/01/10 00:46:35;;;;;;;17.17;10.00;;;;;;;-5.48;74.92;101236.03;5029784;28;20603;-63
2024/01/10 00:49:02;;;;;;;17.17;9.80;;;;;;;-5.56;75.97;101239.16;5031451;28;20229;-63
2024/01/10 00:51:28;;;;;;;17.47;9.43;;;;;;;-5.57;77.00;101226.59;5043618;28;20248;-63
2024/01/10 00:53:53;;;;;;;18.27;10.03;;;;;;;-5.60;77.28;101229.00;5034921;28;20486;-62
2024/01/10 00:56:18;;;;;;;14.27;8.87;;;;;;;-5.54;78.51;101230.03;5031852;28;20182;-63
2024/01/10 00:58:44;;;;;;;18.63;9.87;;;;;;;-5.62;79.01;101235.63;5031457;28;20189;-62
2024/01/10 01:01:09;;;;;;;20.50;10.57;;;;;;;-5.62;79.10;101231.44;5039116;28;20697;-62
2024/01/10 01:03:36;;;;;;;16.07;9.37;;;;;;;-5.61;80.71;101230.66;5037105;28;20182;-62
2024/01/10 01:06:01;;;;;;;17.97;10.20;;;;;;;-5.67;81.68;101225.44;5031548;28;20178;-63
2024/01/10 01:08:26;;;;;;;17.60;9.67;;;;;;;-5.67;82.60;101230.47;5029912;28;20482;-62
2024/01/10 01:10:51;;;;;;;18.17;9.97;;;;;;;-5.67;84.32;101225.44;5034379;28;20647;-63
2024/01/10 01:13:17;;;;;;;18.90;9.90;;;;;;;-5.75;84.34;101230.25;5039503;28;20236;-62
2024/01/10 01:15:43;;;;;;;16.73;10.37;;;;;;;-5.78;86.14;101226.78;5037204;28;20177;-62
2024/01/10 01:18:09;;;;;;;18.90;9.97;;;;;;;-5.74;87.41;101229.44;5035938;28;20190;-66
2024/01/10 01:20:35;;;;;;;18.57;10.60;;;;;;;-5.83;87.77;101229.16;5017107;28;20539;-63
2024/01/10 01:23:00;;;;;;;19.50;11.43;;;;;;;-5.89;89.03;101232.34;5040424;28;20519;-64
2024/01/10 01:25:26;;;;;;;20.63;10.33;;;;;;;-5.89;90.31;101223.94;5050097;28;20185;-64
2024/01/10 01:27:51;;;;;;;19.40;10.73;;;;;;;-5.96;90.44;101230.44;5030968;28;20759;-64
2024/01/10 01:30:16;;;;;;;21.73;12.07;;;;;;;-5.97;91.23;101226.22;5023633;28;20200;-63
2024/01/10 01:32:42;;;;;;;20.00;12.10;;;;;;;-6.02;91.60;101226.09;5058915;28;20178;-65
2024/01/10 01:35:07;;;;;;;19.33;11.00;;;;;;;-5.98;91.47;101229.53;5029877;28;20200;-63
2024/01/10 01:37:32;;;;;;;20.17;10.90;;;;;;;-6.00;91.40;101233.69;5063197;28;20317;-64
2024/01/10 01:39:58;;;;;;;19.40;10.47;;;;;;;-5.88;91.67;101223.16;5031063;28;20170;-63
2024/01/10 01:42:23;;;;;;;18.70;10.70;;;;;;;-5.97;91.49;101222.88;5037828;28;20265;-62
2024/01/10 01:44:49;;;;;;;17.97;10.67;;;;;;;-5.93;91.19;101227.16;5030773;28;20299;-63
2024/01/10 01:47:14;;;;;;;23.10;11.40;;;;;;;-6.00;91.54;101226.16;5029953;28;20190;-63
2024/01/10 01:49:42;;;;;;;21.10;10.73;;;;;;;-5.95;91.38;101227.13;5034026;28;20612;-63
2024/01/10 01:52:07;;;;;;;20.60;11.00;;;;;;;-5.94;92.26;101232.97;5052415;28;20630;-62
2024/01/10 01:54:33;;;;;;;24.77;12.37;;;;;;;-6.04;93.31;101222.72;5029489;28;20431;-62
2024/01/10 01:56:58;;;;;;;22.83;11.33;;;;;;;-6.05;93.77;101226.00;5030752;28;20236;-62
2024/01/10 01:59:24;;;;;;;24.23;10.60;;;;;;;-5.98;93.90;101218.69;5062884;28;20590;-62
2024/01/10 02:01:52;;;;;;;22.53;11.37;;;;;;;-6.03;94.09;101221.91;5049007;28;20228;-62
2024/01/10 02:04:19;;;;;;;25.67;11.63;;;;;;;-6.00;94.53;101221.16;5030819;28;20533;-62
2024/01/10 02:06:45;;;;;;;23.87;12.40;;;;;;;-6.02;95.14;101222.75;5029476;28;20428;-62
2024/01/10 02:09:10;;;;;;;21.57;12.73;;;;;;;-6.05;95.69;101220.16;5030535;28;20776;-62
2024/01/10 02:11:36;;;;;;;19.17;12.17;;;;;;;-6.06;96.60;101223.47;5045223;28;20675;-62
2024/01/10 02:14:01;;;;;;;23.20;12.07;;;;;;;-6.04;97.07;101224.34;5033036;28;20186;-63
2024/01/10 02:16:26;;;;;;;23.97;12.13;;;;;;;-6.04;97.36;101219.34;5031297;28;20189;-63
2024/01/10 02:18:52;;;;;;;21.87;12.40;;;;;;;-6.07;98.19;101224.28;5030527;28;20174;-63
2024/01/10 02:21:23;;;;;;;22.10;12.33;;;;;;;-6.22;99.17;101220.47;5040766;28;20237;-65
2024/01/10 02:23:48;;;;;;;22.30;11.93;;;;;;;-6.21;100.00;101222.16;5039587;28;20174;-62
2024/01/10 02:26:15;;;;;;;24.23;13.90;;;;;;;-6.35;100.00;101214.22;5029194;28;20467;-62
2024/01/10 02:28:40;;;;;;;21.93;11.60;;;;;;;-6.33;100.00;101217.59;5029335;28;20254;-62
2024/01/10 02:31:06;;;;;;;23.33;12.50;;;;;;;-6.33;100.00;101212.59;5037182;28;20993;-63
2024/01/10 02:33:32;;;;;;;22.13;12.60;;;;;;;-6.42;100.00;101211.47;5036552;28;20257;-63
2024/01/10 02:35:57;;;;;;;21.87;12.90;;;;;;;-6.41;100.00;101208.13;5033815;28;20504;-62
2024/01/10 02:38:23;;;;;;;21.07;12.13;;;;;;;-6.47;100.00;101217.94;5034063;28;20645;-62
2024/01/10 02:40:49;;;;;;;22.43;12.53;;;;;;;-6.45;100.00;101219.69;5036239;28;20229;-62
2024/01/10 02:43:15;;;;;;;24.87;13.00;;;;;;;-6.36;100.00;101204.16;5055613;28;20202;-61
2024/01/10 02:45:41;;;;;;;26.70;12.57;;;;;;;-6.30;100.00;101211.88;5027490;28;20768;-64
2024/01/10 02:48:06;;;;;;;23.53;12.43;;;;;;;-6.37;100.00;101207.47;5032674;28;20471;-62
2024/01/10 02:50:32;;;;;;;26.07;13.47;;;;;;;-6.40;100.00;101207.34;5023291;28;20225;-62
2024/01/10 02:52:57;;;;;;;22.37;13.47;;;;;;;-6.41;100.00;101203.13;5056493;28;20625;-62
2024/01/10 02:55:22;;;;;;;22.23;12.97;;;;;;;-6.36;100.00;101211.66;5033826;28;20182;-63
2024/01/10 02:57:47;;;;;;;19.77;11.93;;;;;;;-6.43;100.00;101213.09;5033661;28;20269;-61
2024/01/10 03:00:13;;;;;;;24.47;12.07;;;;;;;-6.38;100.00;101214.09;5058191;28;20634;-61
2024/01/10 03:02:38;;;;;;;25.50;13.67;;;;;;;-6.34;100.00;101210.91;5061596;28;20235;-61
2024/01/10 03:05:04;;;;;;;23.73;12.73;;;;;;;-6.42;100.00;101214.81;5032179;28;20248;-61
2024/01/10 03:07:29;;;;;;;25.07;12.87;;;;;;;-6.46;100.00;101204.63;5033790;28;20536;-62
2024/01/10 03:09:54;;;;;;;24.77;13.67;;;;;;;-6.40;100.00;101193.19;5033392;28;20202;-62
2024/01/10 03:12:19;;;;;;;26.23;13.03;;;;;;;-6.44;100.00;101193.88;5054889;28;20228;-61
2024/01/10 03:14:45;;;;;;;26.73;14.10;;;;;;;-6.46;100.00;101192.13;5033406;28;20182;-62
2024/01/10 03:17:10;;;;;;;26.57;13.40;;;;;;;-6.46;100.00;101192.13;5033402;28;20288;-62
2024/01/10 03:19:37;;;;;;;24.07;13.33;;;;;;;-6.40;100.00;101189.81;5032027;28;20596;-62
2024/01/10 03:22:02;;;;;;;27.13;14.47;;;;;;;-6.46;100.00;101194.63;5054649;28;20216;-62
2024/01/10 03:24:28;;;;;;;23.97;12.57;;;;;;;-6.44;100.00;101193.03;5033199;28;20409;-62
2024/01/10 03:26:53;;;;;;;30.23;14.90;;;;;;;-6.42;100.00;101187.28;5031414;28;20216;-62
2024/01/10 03:29:18;;;;;;;22.07;12.17;;;;;;;-6.44;100.00;101196.38;5031984;28;20198;-61
2024/01/10 03:31:44;;;;;;;28.20;14.33;;;;;;;-6.39;100.00;101191.53;5057131;28;20576;-62
2024/01/10 03:34:09;;;;;;;28.27;14.03;;;;;;;-6.49;100.00;101185.38;5035558;28;20179;-61
2024/01/10 03:36:34;;;;;;;24.27;12.97;;;;;;;-6.49;100.00;101185.38;5032937;28;20186;-62
2024/01/10 03:38:59;;;;;;;23.30;13.47;;;;;;;-6.51;100.00;101187.81;5032700;28;20182;-62
2024/01/10 03:41:24;;;;;;;23.27;13.97;;;;;;;-6.56;100.00;101191.84;5035655;28;20358;-62
2024/01/10 03:43:50;;;;;;;30.70;14.17;;;;;;;-6.45;100.00;101193.81;5043131;28;20206;-61
2024/01/10 03:46:15;;;;;;;22.30;13.27;;;;;;;-6.48;100.00;101182.06;5031970;28;20586;-62
2024/01/10 03:48:47;;;;;;;21.83;12.27;;;;;;;-6.57;100.00;101190.13;5035833;28;20197;-61
2024/01/10 03:51:17;;;;;;;25.63;13.50;;;;;;;-6.53;100.00;101186.06;5021834;28;20232;-62
2024/01/10 03:53:42;;;;;;;25.57;13.10;;;;;;;-6.49;100.00;101187.88;5037230;28;20439;-62
2024/01/10 03:56:08;;;;;;;26.97;13.97;;;;;;;-6.51;100.00;101185.31;5032586;28;20868;-62
2024/01/10 03:58:33;;;;;;;24.80;13.17;;;;;;;-6.51;100.00;101190.31;5031362;28;20226;-61
2024/01/10 04:00:58;;;;;;;22.37;12.87;;;;;;;-6.44;100.00;101188.88;5037505;28;20305;-61
2024/01/10 04:03:24;;;;;;;25.13;13.23;;;;;;;-6.51;100.00;101184.44;5039678;28;20278;-62
2024/01/10 04:05:49;;;;;;;25.17;13.03;;;;;;;-6.51;100.00;101184.44;5031093;28;20175;-61
2024/01/10 04:08:14;;;;;;;25.47;13.43;;;;;;;-6.48;100.00;101187.06;5032729;28;20209;-61
2024/01/10 04:10:39;;;;;;;25.90;13.27;;;;;;;-6.55;100.00;101177.66;5029206;28;20228;-61
2024/01/10 04:13:05;;;;;;;25.00;13.27;;;;;;;-6.51;100.00;101187.81;5053667;28;20245;-61
2024/01/10 04:15:30;;;;;;;21.10;12.53;;;;;;;-6.43;100.00;101179.72;5032056;28;20185;-62
2024/01/10 04:17:55;;;;;;;24.93;13.30;;;;;;;-6.52;100.00;101176.09;5031058;28;20178;-62
2024/01/10 04:20:21;;;;;;;23.03;11.90;;;;;;;-6.49;100.00;101180.34;5026879;28;20257;-61
2024/01/10 04:22:46;;;;;;;27.97;13.60;;;;;;;-6.43;100.00;101182.22;5058291;28;20216;-62
2024/01/10 04:25:11;;;;;;;22.00;12.37;;;;;;;-6.43;100.00;101183.06;5032216;28;20637;-63
2024/01/10 04:27:37;;;;;;;25.30;12.57;;;;;;;-6.45;100.00;101188.81;5032444;28;20684;-63
2024/01/10 04:30:02;;;;;;;25.53;12.20;;;;;;;-6.40;100.00;101192.31;5029709;28;20229;-64
2024/01/10 04:32:28;;;;;;;22.33;13.13;;;;;;;-6.35;100.00;101188.31;5036378;28;20225;-62
2024/01/10 04:34:53;;;;;;;22.90;13.67;;;;;;;-6.33;100.00;101182.53;5030471;28;20273;-62
2024/01/10 04:37:18;;;;;;;22.77;13.27;;;;;;;-6.27;100.00;101186.91;5031900;28;20213;-62
2024/01/10 04:39:43;;;;;;;21.93;13.63;;;;;;;-6.24;100.00;101183.66;5032206;28;20587;-62
2024/01/10 04:42:11;;;;;;;25.20;12.50;;;;;;;-6.15;100.00;101176.44;5039006;28;20224;-62
2024/01/10 04:44:36;;;;;;;23.60;13.00;;;;;;;-6.11;100.00;101173.22;5031118;28;20174;-63
2024/01/10 04:47:02;;;;;;;21.80;12.70;;;;;;;-6.09;100.00;101178.28;5031686;28;21013;-63
2024/01/10 04:49:27;;;;;;;23.73;12.73;;;;;;;-6.12;100.00;101176.53;5036091;28;20347;-63
2024/01/10 04:51:53;;;;;;;26.00;13.57;;;;;;;-6.10;100.00;101184.06;5038042;28;20833;-63
2024/01/10 04:54:18;;;;;;;24.60;13.17;;;;;;;-6.07;100.00;101182.53;5031777;28;20190;-63
2024/01/10 04:56:43;;;;;;;25.57;12.50;;;;;;;-6.02;100.00;101181.00;5031717;28;20186;-62
2024/01/10 04:59:09;;;;;;;27.53;14.20;;;;;;;-6.11;100.00;101183.25;5030051;28;20190;-62
2024/01/10 05:01:34;;;;;;;28.77;13.87;;;;;;;-6.09;100.00;101180.78;5045573;28;20228;-62
2024/01/10 05:03:59;;;;;;;25.70;14.00;;;;;;;-6.03;100.00;101176.81;5038922;28;20190;-62
2024/01/10 05:06:25;;;;;;;25.83;13.47;;;;;;;-5.96;100.00;101171.97;5031472;28;20186;-62
2024/01/10 05:08:50;;;;;;;24.93;13.00;;;;;;;-6.10;100.00;101169.91;5031410;28;20239;-62
2024/01/10 05:11:16;;;;;;;22.10;12.27;;;;;;;-6.06;100.00;101170.88;5033169;28;20671;-62
2024/01/10 05:13:42;;;;;;;23.60;12.97;;;;;;;-6.08;100.00;101169.94;5043350;28;20185;-62
2024/01/10 05:16:07;;;;;;;22.57;13.20;;;;;;;-5.95;100.00;101183.66;5031283;28;20178;-62
2024/01/10 05:18:32;;;;;;;23.90;12.30;;;;;;;-6.05;100.00;101182.59;5031103;28;20423;-62
2024/01/10 05:20:59;;;;;;;26.57;14.17;;;;;;;-6.12;100.00;101186.53;5035694;28;20642;-62
2024/01/10 05:23:24;;;;;;;20.83;11.83;;;;;;;-6.04;100.00;101177.63;5038172;28;20309;-62
2024/01/10 05:25:49;;;;;;;25.00;12.90;;;;;;;-5.94;100.00;101173.72;5031457;28;20500;-62
2024/01/10 05:28:15;;;;;;;24.27;12.97;;;;;;;-5.87;99.42;101179.75;5029812;28;20565;-62
2024/01/10 05:30:43;;;;;;;25.20;12.83;;;;;;;-5.89;99.43;101169.69;5027948;28;20243;-62
2024/01/10 05:33:08;;;;;;;24.97;12.73;;;;;;;-5.95;99.18;101179.53;5052143;28;20931;-62
2024/01/10 05:35:34;;;;;;;24.23;14.53;;;;;;;-5.89;100.00;101177.19;5031077;28;20514;-62
2024/01/10 05:37:59;;;;;;;22.37;12.00;;;;;;;-5.90;99.92;101169.66;5029805;28;20542;-62
2024/01/10 05:40:24;;;;;;;25.30;12.87;;;;;;;-5.85;99.92;101171.47;5027098;28;20235;-62
2024/01/10 05:42:49;;;;;;;28.17;13.63;;;;;;;-5.79;99.67;101175.81;5042257;28;20506;-63
2024/01/10 05:45:17;;;;;;;23.53;13.07;;;;;;;-5.75;98.51;101176.78;5031186;28;20279;-62
2024/01/10 05:47:43;;;;;;;21.80;12.07;;;;;;;-5.75;97.75;101177.59;5031040;28;20174;-62
2024/01/10 05:50:09;;;;;;;24.50;11.83;;;;;;;-5.80;98.19;101175.75;5026329;28;20820;-63
2024/01/10 05:52:34;;;;;;;28.10;13.87;;;;;;;-5.84;97.76;101178.19;5060729;28;20277;-62
2024/01/10 05:55:02;;;;;;;23.63;12.03;;;;;;;-5.94;98.66;101170.34;5030829;28;20178;-62
2024/01/10 05:57:27;;;;;;;21.97;12.33;;;;;;;-5.97;99.15;101168.59;5029515;28;20171;-62
2024/01/10 05:59:56;;;;;;;25.93;13.83;;;;;;;-5.97;99.65;101167.75;5031335;28;20781;-63
2024/01/10 06:02:24;;;;;;;23.87;11.80;;;;;;;-5.95;100.00;101168.63;5052169;28;20213;-63
2024/01/10 06:04:49;;;;;;;21.90;12.27;;;;;;;-6.04;99.53;101165.09;5029326;28;20541;-61
2024/01/10 06:07:15;;;;;;;26.13;13.73;;;;;;;-6.01;100.00;101165.16;5029086;28;20436;-62
2024/01/10 06:09:40;;;;;;;27.57;13.60;;;;;;;-6.14;100.00;101163.09;5031007;28;20220;-62
2024/01/10 06:12:06;;;;;;;22.23;12.20;;;;;;;-6.21;100.00;101166.22;5053709;28;20236;-62
2024/01/10 06:14:32;;;;;;;26.67;13.03;;;;;;;-6.25;100.00;101162.78;5034257;28;20204;-62
2024/01/10 06:16:59;;;;;;;27.83;12.50;;;;;;;-6.02;100.00;101172.66;5034369;28;20503;-63
2024/01/10 06:19:24;;;;;;;25.00;12.97;;;;;;;-6.12;100.00;101166.50;5034394;28;20185;-62
2024/01/10 06:21:51;;;;;;;24.67;11.97;;;;;;;-6.09;100.00;101171.63;5052281;28;20474;-63
2024/01/10 06:24:17;;;;;;;26.03;13.47;;;;;;;-6.05;100.00;101168.41;5018481;28;20276;-63
2024/01/10 06:26:42;;;;;;;21.00;11.90;;;;;;;-6.06;100.00;101174.22;5032654;28;20504;-64
2024/01/10 06:29:07;;;;;;;24.17;12.37;;;;;;;-6.03;100.00;101178.47;5034237;28;20638;-62
2024/01/10 06:31:33;;;;;;;24.20;12.87;;;;;;;-6.10;100.00;101174.94;5047113;28;20239;-64
2024/01/10 06:33:59;;;;;;;25.33;13.40;;;;;;;-6.06;100.00;101180.88;5033019;28;20177;-63
2024/01/10 06:36:24;;;;;;;24.20;12.67;;;;;;;-6.10;100.00;101181.56;5034152;28;20584;-63
2024/01/10 06:38:49;;;;;;;19.23;12.47;;;;;;;-6.11;100.00;101178.22;5033928;28;20663;-62
2024/01/10 06:41:14;;;;;;;23.30;12.13;;;;;;;-6.07;100.00;101182.53;5035432;28;20227;-63
2024/01/10 06:43:40;;;;;;;20.30;11.83;;;;;;;-6.04;100.00;101179.25;5046107;28;20208;-62
2024/01/10 06:46:06;;;;;;;22.53;12.70;;;;;;;-6.02;100.00;101176.00;5034048;28;20237;-63
2024/01/10 06:48:32;;;;;;;23.53;13.07;;;;;;;-6.00;100.00;101181.91;5033962;28;20247;-65
2024/01/10 06:50:57;;;;;;;25.27;13.17;;;;;;;-6.07;100.00;101182.53;5035131;28;20474;-62
2024/01/10 06:53:22;;;;;;;22.07;13.03;;;;;;;-6.07;100.00;101171.66;5038990;28;20184;-63
2024/01/10 06:55:48;;;;;;;24.93;13.30;;;;;;;-5.96;100.00;101174.47;5033579;28;20694;-63
2024/01/10 06:58:13;;;;;;;27.97;14.10;;;;;;;-5.98;100.00;101184.44;5033707;28;20269;-64
2024/01/10 07:00:39;;;;;;;21.10;12.67;;;;;;;-6.02;100.00;101180.16;5032548;28;20221;-62
2024/01/10 07:03:04;;;;;;;23.50;13.57;;;;;;;-6.11;100.00;101178.22;5055085;28;20197;-63
2024/01/10 07:05:31;;;;;;;21.10;11.83;;;;;;;-6.06;100.00;101179.22;5033737;28;20223;-63
2024/01/10 07:07:57;;;;;;;22.27;13.33;;;;;;;-6.12;100.00;101183.19;5064655;28;20641;-64
2024/01/10 07:10:25;;;;;;;25.53;12.63;;;;;;;-6.17;100.00;101181.38;5028089;28;20481;-63
2024/01/10 07:12:51;;;;;;;29.13;12.60;;;;;;;-6.07;100.00;101187.53;5044548;28;20189;-62
2024/01/10 07:15:17;;;;;;;34.03;14.50;;;;;;;-6.01;100.00;101192.72;5033090;28;20436;-64
2024/01/10 07:17:43;;;;;;;29.20;13.47;;;;;;;-6.04;100.00;101186.78;5031792;28;20264;-63
2024/01/10 07:20:11;;;;;;;26.63;13.97;;;;;;;-6.03;100.00;101198.50;5022678;28;20206;-64
2024/01/10 07:22:39;;;;;;;25.03;14.10;;;;;;;-6.05;100.00;101193.44;5061173;28;20277;-63
2024/01/10 07:25:05;;;;;;;22.07;12.47;;;;;;;-5.95;100.00;101196.19;5029688;28;20444;-63
2024/01/10 07:27:31;;;;;;;24.00;13.47;;;;;;;-5.97;100.00;101200.31;5033061;28;20419;-63
2024/01/10 07:29:57;;;;;;;27.50;13.03;;;;;;;-6.10;100.00;101206.63;5031250;28;20460;-63
2024/01/10 07:32:23;;;;;;;22.97;12.20;;;;;;;-6.09;100.00;101203.31;5053507;28;20220;-63
2024/01/10 07:34:48;;;;;;;26.93;12.63;;;;;;;-5.98;100.00;101211.97;5032846;28;20486;-63
2024/01/10 07:37:16;;;;;;;25.93;13.93;;;;;;;-5.96;100.00;101217.91;5031511;28;20182;-63
2024/01/10 07:39:41;;;;;;;25.40;13.37;;;;;;;-5.88;100.00;101211.50;5032706;28;20667;-63
2024/01/10 07:42:07;;;;;;;23.13;13.10;;;;;;;-5.89;100.00;101214.78;5053569;28;20475;-63
2024/01/10 07:44:33;;;;;;;25.20;13.27;;;;;;;-5.94;100.00;101215.44;5034301;28;20819;-62
2024/01/10 07:46:58;;;;;;;26.73;11.70;;;;;;;-5.91;100.00;101218.91;5031006;28;20232;-63
2024/01/10 07:49:24;;;;;;;19.30;11.73;;;;;;;-5.93;100.00;101220.50;5037368;28;20213;-63
2024/01/10 07:51:49;;;;;;;25.30;12.93;;;;;;;-5.82;100.00;101215.81;5050153;28;20320;-62
2024/01/10 07:54:14;;;;;;;25.47;13.27;;;;;;;-5.89;100.00;101219.81;5032823;28;20281;-63
2024/01/10 07:56:40;;;;;;;24.47;13.77;;;;;;;-5.74;100.00;101219.41;5032584;28;20702;-63
2024/01/10 07:59:05;;;;;;;25.93;13.70;;;;;;;-5.78;100.00;101220.13;5030313;28;20363;-62
2024/01/10 08:01:30;;;;;;;26.10;13.93;;;;;;;-5.69;100.00;101225.41;5044822;28;20599;-63
2024/01/10 08:03:56;;;;;;;26.40;13.33;;;;;;;-5.70;100.00;101228.72;5035352;28;20692;-62
2024/01/10 08:06:21;;;;;;;27.53;13.63;;;;;;;-5.48;100.00;101231.00;5065319;28;20227;-62
2024/01/10 08:08:46;;;;;;;21.73;12.43;;;;;;;-5.52;99.31;101230.94;5033252;28;20202;-62
2024/01/10 08:11:12;;;;;;;24.93;12.67;;;;;;;-5.54;99.76;101234.22;5040951;28;20235;-64
2024/01/10 08:13:37;;;;;;;24.80;12.37;;;;;;;-5.43;99.32;101230.34;5044658;28;20268;-62
2024/01/10 08:16:03;;;;;;;24.47;13.03;;;;;;;-5.33;99.35;101241.50;5032064;28;20633;-62
2024/01/10 08:18:28;;;;;;;21.10;11.97;;;;;;;-5.24;98.78;101234.22;5030588;28;20236;-63
2024/01/10 08:20:55;;;;;;;28.43;13.60;;;;;;;-5.25;98.36;101239.22;5035765;28;20506;-62
2024/01/10 08:23:20;;;;;;;32.63;14.20;;;;;;;-5.24;98.75;101238.41;5049447;28;20452;-62
2024/01/10 08:25:46;;;;;;;25.83;14.80;;;;;;;-5.37;98.72;101240.56;5030666;28;20648;-62
2024/01/10 08:28:13;;;;;;;28.10;13.43;;;;;;;-5.37;98.70;101245.59;5030342;28;20197;-62
2024/01/10 08:30:38;;;;;;;26.17;12.03;;;;;;;-5.31;98.77;101239.03;5004364;28;20590;-63
2024/01/10 08:33:04;;;;;;;29.60;14.27;;;;;;;-5.13;98.17;101247.09;5030509;28;20433;-63
2024/01/10 08:35:29;;;;;;;35.10;13.77;;;;;;;-5.07;97.73;101248.94;5030152;28;20591;-63
2024/01/10 08:37:55;;;;;;;28.43;15.23;;;;;;;-4.90;97.71;101251.88;5031382;28;20405;-63
2024/01/10 08:40:23;;;;;;;35.90;15.90;;;;;;;-4.76;95.41;101245.59;5058170;28;20182;-62
2024/01/10 08:42:48;;;;;;;27.83;14.40;;;;;;;-4.54;94.97;101254.53;5056988;28;20290;-62
2024/01/10 08:45:14;;;;;;;23.27;13.40;;;;;;;-4.55;93.04;101246.97;5031734;28;20556;-62
2024/01/10 08:47:40;;;;;;;29.30;14.57;;;;;;;-4.71;93.04;101259.13;5032044;28;20211;-62
2024/01/10 08:50:08;;;;;;;30.10;14.30;;;;;;;-4.86;94.73;101257.03;5025681;28;20947;-62
2024/01/10 08:52:34;;;;;;;27.50;14.10;;;;;;;-4.89;95.34;101258.63;5061281;28;20273;-62
2024/01/10 08:54:59;;;;;;;26.27;13.60;;;;;;;-4.74;95.79;101261.56;5031242;28;20417;-61
2024/01/10 08:57:26;;;;;;;23.03;13.00;;;;;;;-4.56;93.71;101255.31;5031219;28;21688;-62
2024/01/10 08:59:52;;;;;;;25.50;12.83;;;;;;;-4.63;93.25;101261.81;5030074;28;20207;-63
2024/01/10 09:02:17;;;;;;;23.97;14.23;;;;;;;-4.52;92.41;101261.28;5052874;28;20258;-62
2024/01/10 09:04:42;;;;;;;24.87;13.30;;;;;;;-4.57;92.19;101259.47;5031192;28;20190;-62
2024/01/10 09:07:09;;;;;;;24.87;14.43;;;;;;;-4.45;91.47;101268.13;5031425;28;20262;-62
2024/01/10 09:09:34;;;;;;;23.53;13.33;;;;;;;-4.45;91.34;101274.03;5031342;28;20190;-62
2024/01/10 09:12:00;;;;;;;22.40;12.70;;;;;;;-4.32;90.94;101266.81;5047773;28;20536;-62
2024/01/10 09:14:25;;;;;;;26.17;13.30;;;;;;;-4.17;89.17;101263.81;5029998;28;20180;-62
2024/01/10 09:16:52;;;;;;;24.73;14.67;;;;;;;-4.00;88.33;101266.75;5029704;28;20655;-62
2024/01/10 09:19:17;;;;;;;25.20;14.13;;;;;;;-4.06;87.12;101270.84;5031169;28;20183;-62
2024/01/10 09:21:42;;;;;;;25.60;15.40;;;;;;;-4.01;88.04;101275.09;5036323;28;20484;-62
2024/01/10 09:24:10;;;;;;;29.30;14.87;;;;;;;-3.92;86.47;101273.66;5036229;28;20193;-63
2024/01/10 09:26:36;;;;;;;23.83;13.80;;;;;;;-3.76;86.11;101271.50;5030792;28;20207;-62
2024/01/10 09:29:01;;;;;;;26.00;14.60;;;;;;;-3.77;83.89;101275.69;5030819;28;20227;-64
2024/01/10 09:31:27;;;;;;;29.40;13.73;;;;;;;-3.85;84.15;101279.69;5042507;28;20213;-63
2024/01/10 09:33:52;;;;;;;24.43;13.77;;;;;;;-4.10;86.99;101269.03;5040596;28;20287;-64
2024/01/10 09:36:17;;;;;;;26.53;14.60;;;;;;;-3.88;87.46;101274.59;5029605;28;20712;-63
2024/01/10 09:38:42;;;;;;;27.23;13.87;;;;;;;-3.65;86.53;101269.25;5030842;28;20614;-63
2024/01/10 09:41:10;;;;;;;23.50;14.50;;;;;;;-3.74;85.46;101270.72;5031100;28;20223;-62
2024/01/10 09:43:36;;;;;;;28.35;14.77;;;;;;;-3.69;86.52;101267.47;5043492;28;20417;-62
2024/01/10 09:46:02;;;;;;;27.03;14.87;;;;;;;-3.35;82.88;101273.25;5032700;28;20275;-62
2024/01/10 09:48:29;;;;;;;26.67;14.10;;;;;;;-3.07;81.49;101269.66;5036022;28;20259;-63
2024/01/10 09:50:55;;;;;;;26.53;14.83;;;;;;;-3.26;79.42;101268.44;5061978;28;20231;-63
2024/01/10 09:53:31;;;;;;;27.57;14.90;;;;;;;-3.23;81.48;101273.50;5066183;28;20251;-62
2024/01/10 09:55:56;;;;;;;23.97;13.60;;;;;;;-3.37;81.29;101269.84;5034567;28;20215;-62
2024/01/10 09:58:25;;;;;;;23.13;13.03;;;;;;;-3.30;81.23;101280.09;5035095;28;20196;-63
2024/01/10 10:00:51;;;;;;;23.17;13.33;;;;;;;-3.40;80.89;101273.13;5032596;28;20265;-63
2024/01/10 10:03:18;;;;;;;24.60;14.67;;;;;;;-3.60;82.02;101263.50;5043388;28;20198;-64
2024/01/10 10:05:44;;;;;;;25.80;14.40;;;;;;;-3.49;83.75;101258.69;5032224;28;20209;-62
2024/01/10 10:08:12;;;;;;;24.33;14.03;;;;;;;-3.58;84.96;101258.50;5024047;28;20279;-62
2024/01/10 10:10:42;;;;;;;41.30;17.17;;;;;;;-3.54;85.32;101259.44;5030729;28;20641;-61
2024/01/10 10:13:10;;;;;;;25.70;14.93;;;;;;;-3.29;82.83;101255.75;5054921;28;20660;-61
2024/01/10 10:15:36;;;;;;;21.03;12.03;;;;;;;-3.14;81.01;101250.19;5032923;28;20660;-61
2024/01/10 10:18:02;;;;;;;24.00;12.87;;;;;;;-3.39;78.29;101253.88;5034769;28;20224;-61
2024/01/10 10:20:37;;;;;;;23.13;12.67;;;;;;;-3.32;81.66;101260.75;5030664;28;20227;-62
2024/01/10 10:23:10;;;;;;;27.87;14.77;;;;;;;-3.26;79.67;101255.84;5055557;28;20177;-62
2024/01/10 10:25:45;;;;;;;22.67;13.57;;;;;;;-3.35;78.51;101255.63;5034731;28;20181;-61
2024/01/10 10:28:11;;;;;;;23.70;11.67;;;;;;;-3.42;79.04;101252.16;5061828;28;20221;-61
2024/01/10 10:30:36;;;;;;;20.30;11.77;;;;;;;-3.23;78.90;101255.88;5032850;28;20325;-61
2024/01/10 10:33:03;;;;;;;26.67;14.20;;;;;;;-3.14;77.59;101263.66;5043301;28;20189;-62
2024/01/10 10:35:28;;;;;;;23.07;13.83;;;;;;;-3.06;77.49;101260.41;5032703;28;20213;-61
2024/01/10 10:37:54;;;;;;;20.77;12.87;;;;;;;-3.12;74.48;101256.94;5032544;28;20668;-61
2024/01/10 10:40:20;;;;;;;23.57;13.00;;;;;;;-3.18;75.99;101264.38;5026818;28;20266;-60
2024/01/10 10:42:48;;;;;;;24.13;13.37;;;;;;;-3.12;75.48;101262.00;5042443;28;20226;-60
2024/01/10 10:45:18;;;;;;;23.30;13.00;;;;;;;-2.99;75.47;101257.19;5032285;28;20233;-61
2024/01/10 10:47:46;;;;;;;23.53;14.03;;;;;;;-3.05;75.15;101259.59;5032575;28;20174;-61
2024/01/10 10:50:16;;;;;;;22.17;13.60;;;;;;;-2.80;74.88;101260.94;5016129;28;20199;-61
2024/01/10 10:52:46;;;;;;;23.30;12.70;;;;;;;-2.93;72.88;101262.34;5059313;28;20269;-60
2024/01/10 10:55:14;;;;;;;24.23;13.57;;;;;;;-2.95;72.87;101254.78;5033650;28;20221;-60
2024/01/10 10:57:42;;;;;;;23.10;13.27;;;;;;;-2.86;74.07;101266.69;5032152;28;20232;-61
2024/01/10 11:00:10;;;;;;;24.63;13.50;;;;;;;-2.66;73.52;101261.19;5056922;28;20213;-62